Time;durP1;ratioP1;P1;durP2;ratioP2;P2;SDS_P1;SDS_P2;PMS_P1;PMS_P2;Temp;Humidity;BMP_temperature;BMP_pressure;BME280_temperature;BME280_humidity;BME280_pressure;Samples;Min_cycle;Max_cycle;Signal;HPM_P1;HPM_P2
2022/01/13 00:02:11;;;;;;;183.83;32.77;;;;;;;-145.18;100.00;46877.22;5028774;28;20387;-72
2022/01/13 00:04:36;;;;;;;208.77;35.23;;;;;;;-145.18;100.00;46894.81;5026923;28;20137;-71
2022/01/13 00:07:02;;;;;;;184.70;34.20;;;;;;;-145.18;100.00;46849.88;5029074;28;20279;-72
2022/01/13 00:09:28;;;;;;;187.00;35.03;;;;;;;-145.18;100.00;46883.09;5029227;28;20049;-72
2022/01/13 00:11:55;;;;;;;192.97;35.50;;;;;;;-145.18;100.00;46881.13;5028595;28;20387;-72
2022/01/13 00:14:25;;;;;;;256.97;37.53;;;;;;;-145.18;100.00;46873.31;5027188;28;20044;-72
2022/01/13 00:19:35;;;;;;;204.83;35.33;;;;;;;-145.18;100.00;46877.22;5028735;28;20259;-72
2022/01/13 00:22:16;;;;;;;209.47;33.77;;;;;;;-145.18;100.00;46869.41;5028905;28;20742;-71
2022/01/13 00:24:45;;;;;;;220.20;31.73;;;;;;;-145.18;100.00;46871.38;5028003;28;20707;-71
2022/01/13 00:27:13;;;;;;;105.33;23.37;;;;;;;-145.18;100.00;46863.53;5028688;28;20767;-71
2022/01/13 00:29:41;;;;;;;173.63;24.63;;;;;;;-145.18;100.00;46857.69;5027915;28;20786;-72
2022/01/13 00:32:07;;;;;;;151.40;24.47;;;;;;;-145.18;100.00;46861.59;5028393;28;20771;-72
2022/01/13 00:34:32;;;;;;;162.60;28.03;;;;;;;-145.18;100.00;46873.31;5026524;28;20285;-72
2022/01/13 00:36:58;;;;;;;211.40;26.60;;;;;;;-145.18;100.00;46887.00;5028469;28;20275;-71
2022/01/13 00:39:24;;;;;;;194.30;28.10;;;;;;;-145.18;100.00;46879.19;5026660;28;20050;-72
2022/01/13 00:41:49;;;;;;;166.23;26.00;;;;;;;-145.18;100.00;46855.72;5028629;28;20107;-71
2022/01/13 00:44:19;;;;;;;147.83;26.70;;;;;;;-145.18;100.00;46875.28;5026598;28;20174;-72
2022/01/13 00:46:47;;;;;;;206.03;30.37;;;;;;;-145.18;100.00;46883.09;5027216;28;20065;-72
2022/01/13 00:49:14;;;;;;;149.37;23.57;;;;;;;-145.18;100.00;46859.63;5028067;28;20880;-71
2022/01/13 00:51:40;;;;;;;184.20;27.13;;;;;;;-145.18;100.00;46849.88;5027454;28;20329;-71
2022/01/13 00:54:07;;;;;;;170.43;24.07;;;;;;;-145.18;100.00;46869.41;5027505;28;20312;-71
2022/01/13 00:56:35;;;;;;;189.67;26.57;;;;;;;-145.18;100.00;46853.78;5027559;28;20778;-72
2022/01/13 00:59:07;;;;;;;115.67;23.77;;;;;;;-145.18;100.00;46863.53;5027921;28;20285;-71
2022/01/13 01:01:48;;;;;;;143.10;25.60;;;;;;;-145.18;100.00;46867.44;5027326;28;20270;-71
2022/01/13 01:04:14;;;;;;;142.20;24.53;;;;;;;-145.18;100.00;46869.41;5027125;28;20275;-71
2022/01/13 01:06:40;;;;;;;179.80;28.40;;;;;;;-145.18;100.00;46873.31;5027650;28;20313;-71
2022/01/13 01:09:15;;;;;;;142.70;26.63;;;;;;;-145.18;100.00;46863.53;5027618;28;20053;-71
2022/01/13 01:11:42;;;;;;;180.88;29.23;;;;;;;-145.18;100.00;46871.38;5027460;28;20044;-71
2022/01/13 01:14:08;;;;;;;147.63;29.67;;;;;;;-145.18;100.00;46879.19;5025856;28;20056;-71
2022/01/13 01:16:36;;;;;;;179.47;32.03;;;;;;;-145.18;100.00;46879.19;5027306;28;20275;-72
2022/01/13 01:19:07;;;;;;;331.73;37.93;;;;;;;-145.18;100.00;46887.00;5027420;28;20044;-72
2022/01/13 01:24:42;;;;;;;123.40;22.63;;;;;;;-145.18;100.00;46883.09;5027590;28;20283;-72
2022/01/13 01:27:08;;;;;;;161.43;31.03;;;;;;;-145.18;100.00;46887.00;5027348;28;20306;-71
2022/01/13 01:32:00;;;;;;;197.60;33.23;;;;;;;-145.18;100.00;46847.91;5025698;28;20283;-72
2022/01/13 01:35:03;;;;;;;224.50;37.10;;;;;;;-145.18;100.00;46879.19;5027422;28;20041;-71
2022/01/13 01:37:23;;;;;;;159.13;32.27;;;;;;;-145.18;100.00;46859.63;5025236;28;20266;-71
2022/01/13 01:39:50;;;;;;;161.30;30.07;;;;;;;-145.18;100.00;46894.81;5026319;28;20282;-71
2022/01/13 01:42:18;;;;;;;151.43;29.43;;;;;;;-145.18;100.00;46865.50;5026910;28;20279;-71
2022/01/13 01:44:46;;;;;;;149.63;30.07;;;;;;;-145.18;100.00;46867.44;5026783;28;20270;-71
2022/01/13 01:47:14;;;;;;;164.50;30.00;;;;;;;-145.18;100.00;46865.50;5027336;28;20263;-71
2022/01/13 01:49:46;;;;;;;185.80;30.87;;;;;;;-145.18;100.00;46888.94;5026929;28;20274;-72
2022/01/13 01:52:15;;;;;;;183.88;31.83;;;;;;;-145.18;100.00;46881.13;5026233;28;20350;-71
2022/01/13 01:54:40;;;;;;;203.47;36.87;;;;;;;-145.18;100.00;46887.00;5026368;28;20037;-71
2022/01/13 01:57:06;;;;;;;181.00;33.30;;;;;;;-145.18;100.00;46883.09;5027241;28;20328;-72
2022/01/13 01:59:35;;;;;;;210.03;31.13;;;;;;;-145.18;100.00;46871.38;5026614;28;20040;-72
2022/01/13 02:02:00;;;;;;;191.60;29.87;;;;;;;-145.18;100.00;46871.38;5027567;28;20329;-71
2022/01/13 02:04:27;;;;;;;186.07;30.00;;;;;;;-145.18;100.00;46887.00;5028558;28;20271;-71
2022/01/13 02:06:59;;;;;;;211.20;25.63;;;;;;;-145.18;100.00;46879.19;5029538;28;20072;-71
2022/01/13 02:09:24;;;;;;;246.77;32.83;;;;;;;-145.18;100.00;46865.50;5030982;28;20267;-71
2022/01/13 02:11:55;;;;;;;175.07;30.00;;;;;;;-145.18;100.00;46857.69;5030375;28;20350;-72
2022/01/13 02:16:52;;;;;;;178.30;31.73;;;;;;;-145.18;100.00;46883.09;5030262;28;20259;-71
2022/01/13 02:19:19;;;;;;;164.70;31.37;;;;;;;-145.18;100.00;46890.91;5030930;28;20270;-71
2022/01/13 02:21:44;;;;;;;186.30;28.97;;;;;;;-145.18;100.00;46887.00;5030417;28;20361;-72
2022/01/13 02:24:10;;;;;;;173.60;30.40;;;;;;;-145.18;100.00;46877.22;5030743;28;20846;-72
2022/01/13 02:26:36;;;;;;;178.07;32.27;;;;;;;-145.18;100.00;46869.41;5030937;28;20029;-72
2022/01/13 02:29:02;;;;;;;188.50;31.07;;;;;;;-145.18;100.00;46883.09;5030889;28;20112;-71
2022/01/13 02:31:28;;;;;;;168.43;31.67;;;;;;;-145.18;100.00;46849.88;5030152;28;21105;-71
2022/01/13 02:33:54;;;;;;;175.87;30.40;;;;;;;-145.18;100.00;46881.13;5030568;28;20267;-71
2022/01/13 02:36:22;;;;;;;249.90;33.13;;;;;;;-145.18;100.00;46871.38;5028978;28;20048;-72
2022/01/13 02:38:53;;;;;;;210.13;31.93;;;;;;;-145.18;100.00;46881.13;5030394;28;20718;-71
2022/01/13 02:41:19;;;;;;;232.97;32.43;;;;;;;-145.18;100.00;46877.22;5030142;28;20332;-71
2022/01/13 02:43:47;;;;;;;223.00;31.77;;;;;;;-145.18;100.00;46871.38;5028658;28;20675;-72
2022/01/13 02:49:24;;;;;;;217.87;31.73;;;;;;;-145.18;100.00;46857.69;4999481;28;21038;-71
2022/01/13 02:51:52;;;;;;;215.20;33.87;;;;;;;-145.18;100.00;46861.59;5028642;28;20361;-71
2022/01/13 02:54:18;;;;;;;182.10;26.90;;;;;;;-145.18;100.00;46879.19;5030005;28;20824;-71
2022/01/13 02:56:44;;;;;;;237.90;35.63;;;;;;;-145.18;100.00;46849.88;5029991;28;20267;-71
2022/01/13 02:59:11;;;;;;;216.40;32.77;;;;;;;-145.18;100.00;46847.91;5030106;28;20767;-71
2022/01/13 03:01:37;;;;;;;219.93;31.53;;;;;;;-145.18;100.00;46857.69;5029542;28;20285;-71
2022/01/13 03:04:08;;;;;;;245.00;32.83;;;;;;;-145.18;100.00;46869.41;5027318;28;20283;-72
2022/01/13 03:06:36;;;;;;;199.60;31.83;;;;;;;-145.18;100.00;46840.09;5028034;28;20259;-72
2022/01/13 03:09:10;;;;;;;219.70;33.63;;;;;;;-145.18;100.00;46867.44;5030028;28;20259;-72
2022/01/13 03:11:37;;;;;;;239.10;34.37;;;;;;;-145.18;100.00;46853.78;5029409;28;20768;-71
2022/01/13 03:14:05;;;;;;;223.10;30.83;;;;;;;-145.18;100.00;46857.69;5030036;28;20338;-71
2022/01/13 03:16:31;;;;;;;278.33;33.70;;;;;;;-145.18;100.00;46865.50;5029031;28;20259;-72
2022/01/13 03:18:56;;;;;;;221.83;34.97;;;;;;;-145.18;100.00;46845.97;5030089;28;20274;-71
2022/01/13 03:21:22;;;;;;;202.47;33.33;;;;;;;-145.18;100.00;46865.50;5028144;28;20446;-71
2022/01/13 03:23:48;;;;;;;200.53;33.63;;;;;;;-145.18;100.00;46863.53;5029484;28;20759;-72
2022/01/13 03:26:13;;;;;;;268.47;35.63;;;;;;;-145.18;100.00;46869.41;5027945;28;20030;-71
2022/01/13 03:28:50;;;;;;;209.33;32.47;;;;;;;-145.18;100.00;46845.97;5029480;28;20117;-72
2022/01/13 03:31:18;;;;;;;184.27;29.93;;;;;;;-145.18;100.00;46834.25;5029180;28;20156;-71
2022/01/13 03:33:44;;;;;;;167.83;32.40;;;;;;;-145.18;100.00;46840.09;5027791;28;20271;-71
2022/01/13 03:36:09;;;;;;;172.57;29.40;;;;;;;-145.18;100.00;46861.59;5028911;28;20283;-70
2022/01/13 03:38:35;;;;;;;240.20;30.93;;;;;;;-145.18;100.00;46842.06;5029801;28;20061;-71
2022/01/13 03:41:02;;;;;;;198.40;30.60;;;;;;;-145.18;100.00;46857.69;5029265;28;20052;-71
2022/01/13 03:43:27;;;;;;;199.30;30.57;;;;;;;-145.18;100.00;46857.69;5029136;28;20041;-71
2022/01/13 03:45:53;;;;;;;209.67;29.50;;;;;;;-145.18;100.00;46853.78;5028364;28;20275;-71
2022/01/13 03:48:18;;;;;;;196.63;30.03;;;;;;;-145.18;100.00;46844.00;5029251;28;20045;-71
2022/01/13 03:50:44;;;;;;;175.00;28.57;;;;;;;-145.18;100.00;46881.13;5027221;28;20038;-71
2022/01/13 03:53:31;;;;;;;346.73;32.90;;;;;;;-145.18;100.00;46855.72;5028926;28;20445;-72
2022/01/13 03:56:30;;;;;;;307.10;32.63;;;;;;;-145.18;100.00;46875.28;5028315;28;20037;-71
2022/01/13 03:59:21;;;;;;;260.50;31.23;;;;;;;-145.18;100.00;46857.69;5029196;28;20278;-71
2022/01/13 04:02:08;;;;;;;198.07;26.93;;;;;;;-145.18;100.00;46855.72;5028808;28;20282;-71
2022/01/13 04:04:42;;;;;;;183.53;27.10;;;;;;;-145.18;100.00;46857.69;5028521;28;20263;-71
2022/01/13 04:07:21;;;;;;;172.53;26.87;;;;;;;-145.18;100.00;46842.06;5028698;28;20259;-71
2022/01/13 04:09:46;;;;;;;262.23;30.03;;;;;;;-145.18;100.00;46830.34;5028653;28;20267;-71
2022/01/13 04:12:14;;;;;;;163.20;25.90;;;;;;;-145.18;100.00;46863.53;5028491;28;20274;-71
2022/01/13 04:17:11;;;;;;;163.90;26.53;;;;;;;-145.18;100.00;46857.69;5028065;28;20266;-71
2022/01/13 04:19:37;;;;;;;170.50;28.17;;;;;;;-145.18;100.00;46863.53;5028382;28;20329;-71
2022/01/13 04:22:04;;;;;;;172.50;27.63;;;;;;;-145.18;100.00;46851.81;5028577;28;20285;-70
2022/01/13 04:24:30;;;;;;;135.70;25.87;;;;;;;-145.18;100.00;46851.81;5027959;28;20833;-71
2022/01/13 04:26:56;;;;;;;152.60;24.73;;;;;;;-145.18;100.00;46861.59;5028282;28;20421;-71
2022/01/13 04:31:57;;;;;;;172.32;26.15;;;;;;;-145.18;100.00;46865.50;5028527;28;20393;-71
2022/01/13 04:34:22;;;;;;;144.60;24.03;;;;;;;-145.18;100.00;46879.19;5028551;28;20132;-71
2022/01/13 04:36:48;;;;;;;151.23;26.07;;;;;;;-145.18;100.00;46867.44;5028071;28;20558;-71
2022/01/13 04:39:15;;;;;;;171.43;27.60;;;;;;;-145.18;100.00;46869.41;5028034;28;20041;-71
2022/01/13 04:41:44;;;;;;;120.03;22.67;;;;;;;-145.18;100.00;46845.97;5027833;28;20064;-71
2022/01/13 04:44:13;;;;;;;163.00;27.73;;;;;;;-145.18;100.00;46853.78;5024283;28;20621;-72
2022/01/13 04:46:39;;;;;;;166.33;28.33;;;;;;;-145.18;100.00;46865.50;5018780;28;20262;-71
2022/01/13 04:49:06;;;;;;;157.67;28.90;;;;;;;-145.18;100.00;46855.72;5022765;28;20279;-71
2022/01/13 04:51:32;;;;;;;127.97;25.37;;;;;;;-145.18;100.00;46849.88;5027787;28;21050;-71
2022/01/13 04:53:57;;;;;;;140.60;23.73;;;;;;;-145.18;100.00;46836.19;5027723;28;20285;-71
2022/01/13 04:56:37;;;;;;;197.00;27.93;;;;;;;-145.18;100.00;46877.22;5027716;28;20037;-71
2022/01/13 04:59:03;;;;;;;218.23;26.10;;;;;;;-145.18;100.00;46885.03;5027931;28;20049;-71
2022/01/13 05:01:29;;;;;;;162.23;24.23;;;;;;;-145.18;100.00;46871.38;5027214;28;20283;-71
2022/01/13 05:03:55;;;;;;;115.07;17.77;;;;;;;-145.18;100.00;46875.28;5027800;28;20289;-71
2022/01/13 05:06:20;;;;;;;210.73;26.27;;;;;;;-145.18;100.00;46859.63;5026209;28;20061;-71
2022/01/13 05:08:46;;;;;;;201.40;26.33;;;;;;;-145.18;100.00;46861.59;5027453;28;20097;-72
2022/01/13 05:11:12;;;;;;;177.13;27.60;;;;;;;-145.18;100.00;46873.31;5027707;28;20045;-71
2022/01/13 05:13:37;;;;;;;144.10;26.87;;;;;;;-145.18;100.00;46861.59;5027407;28;20278;-71
2022/01/13 05:16:03;;;;;;;96.87;19.87;;;;;;;-145.18;100.00;46877.22;5020530;28;20697;-71
2022/01/13 05:21:02;;;;;;;162.23;26.23;;;;;;;-145.18;100.00;46851.81;5015613;28;20066;-71
2022/01/13 05:23:28;;;;;;;171.47;26.50;;;;;;;-145.18;100.00;46863.53;5015830;28;20054;-71
2022/01/13 05:25:53;;;;;;;156.00;26.70;;;;;;;-145.18;100.00;46869.41;5014228;28;20286;-71
2022/01/13 05:28:19;;;;;;;193.73;29.57;;;;;;;-145.18;100.00;46871.38;5017040;28;20487;-72
2022/01/13 05:30:44;;;;;;;172.60;29.10;;;;;;;-145.18;100.00;46845.97;5016046;28;20085;-71
2022/01/13 05:33:09;;;;;;;168.83;28.00;;;;;;;-145.18;100.00;46873.31;5018291;28;20041;-71
2022/01/13 05:35:36;;;;;;;194.30;29.43;;;;;;;-145.18;100.00;46877.22;5011738;28;20044;-71
2022/01/13 05:38:05;;;;;;;184.00;28.93;;;;;;;-145.18;100.00;46865.50;5015709;28;20049;-71
2022/01/13 05:40:31;;;;;;;187.37;29.77;;;;;;;-145.18;100.00;46849.88;5017626;28;20317;-71
2022/01/13 05:42:57;;;;;;;195.30;29.10;;;;;;;-145.18;100.00;46881.13;5021702;28;20318;-71
2022/01/13 05:45:28;;;;;;;191.43;28.57;;;;;;;-145.18;100.00;46844.00;5026284;28;20316;-72
2022/01/13 05:47:55;;;;;;;184.97;31.90;;;;;;;-145.18;100.00;46859.63;5026043;28;20041;-72
2022/01/13 05:50:20;;;;;;;174.47;26.07;;;;;;;-145.18;100.00;46855.72;5027102;28;20271;-71
2022/01/13 05:52:46;;;;;;;184.43;28.07;;;;;;;-145.18;100.00;46863.53;5026288;28;20282;-71
2022/01/13 05:55:13;;;;;;;216.67;29.27;;;;;;;-145.18;100.00;46849.88;5026847;28;20046;-72
2022/01/13 05:57:38;;;;;;;155.50;26.17;;;;;;;-145.18;100.00;46834.25;5008259;28;20502;-71
2022/01/13 06:00:06;;;;;;;156.93;29.27;;;;;;;-145.18;100.00;46855.72;5026479;28;20285;-71
2022/01/13 06:02:31;;;;;;;165.53;27.17;;;;;;;-145.18;100.00;46859.63;5026306;28;20037;-71
2022/01/13 06:04:56;;;;;;;141.97;23.97;;;;;;;-145.18;100.00;46855.72;5026502;28;20691;-71
2022/01/13 06:07:22;;;;;;;173.50;24.07;;;;;;;-145.18;100.00;46855.72;5027206;28;20049;-72
2022/01/13 06:09:47;;;;;;;202.57;27.67;;;;;;;-145.18;100.00;46871.38;5020336;28;20065;-72
2022/01/13 06:12:13;;;;;;;149.40;25.60;;;;;;;-145.18;100.00;46857.69;5012283;28;20050;-72
2022/01/13 06:14:38;;;;;;;170.27;27.10;;;;;;;-145.18;100.00;46863.53;5021296;28;20525;-72
2022/01/13 06:17:03;;;;;;;151.50;26.10;;;;;;;-145.18;100.00;46865.50;5025911;28;20132;-72
2022/01/13 06:19:29;;;;;;;169.47;24.80;;;;;;;-145.18;100.00;46859.63;5025967;28;20041;-74
2022/01/13 06:21:54;;;;;;;185.57;26.10;;;;;;;-145.18;100.00;46859.63;5026618;28;20049;-71
2022/01/13 06:24:20;;;;;;;138.30;25.17;;;;;;;-145.18;100.00;46863.53;5025347;28;20488;-72
2022/01/13 06:26:45;;;;;;;169.13;24.33;;;;;;;-145.18;100.00;46859.63;5026348;28;20048;-71
2022/01/13 06:29:10;;;;;;;164.80;29.03;;;;;;;-145.18;100.00;46844.00;5026471;28;20495;-71
2022/01/13 06:31:36;;;;;;;112.73;22.47;;;;;;;-145.18;100.00;46855.72;5026326;28;20041;-72
2022/01/13 06:34:02;;;;;;;175.20;27.90;;;;;;;-145.18;100.00;46853.78;5010418;28;20045;-71
2022/01/13 06:36:28;;;;;;;155.07;28.60;;;;;;;-145.18;100.00;46881.13;5006836;28;20038;-71
2022/01/13 06:38:54;;;;;;;194.70;27.73;;;;;;;-145.18;100.00;46836.19;5006931;28;20519;-72
2022/01/13 06:41:19;;;;;;;194.87;28.80;;;;;;;-145.18;100.00;46861.59;5006722;28;20271;-72
2022/01/13 06:43:45;;;;;;;133.70;26.47;;;;;;;-145.18;100.00;46853.78;5012920;28;20052;-72
2022/01/13 06:46:15;;;;;;;168.57;27.87;;;;;;;-145.18;100.00;46838.16;5026382;28;20489;-71
2022/01/13 06:48:41;;;;;;;138.17;27.27;;;;;;;-145.18;100.00;46847.91;5024431;28;20072;-71
2022/01/13 06:51:07;;;;;;;194.80;31.40;;;;;;;-145.18;100.00;46855.72;5017482;28;20287;-71
2022/01/13 06:53:32;;;;;;;153.17;29.27;;;;;;;-145.18;100.00;46844.00;5018059;28;20609;-71
2022/01/13 06:55:58;;;;;;;188.00;31.30;;;;;;;-145.18;100.00;46857.69;5025327;28;20449;-71
2022/01/13 06:58:23;;;;;;;177.03;28.57;;;;;;;-145.18;100.00;46849.88;5026276;28;20052;-71
2022/01/13 07:00:49;;;;;;;148.80;26.17;;;;;;;-145.18;100.00;46844.00;5023755;28;20048;-71
2022/01/13 07:03:14;;;;;;;131.53;28.10;;;;;;;-145.18;100.00;46845.97;5024461;28;20064;-71
2022/01/13 07:05:39;;;;;;;150.90;27.83;;;;;;;-145.18;100.00;46840.09;5026159;28;20107;-71
2022/01/13 07:08:10;;;;;;;187.33;28.07;;;;;;;-145.18;100.00;46840.09;5026561;28;20541;-71
2022/01/13 07:10:36;;;;;;;145.93;27.10;;;;;;;-145.18;100.00;46847.91;5024024;28;20502;-71
2022/01/13 07:13:02;;;;;;;173.43;29.97;;;;;;;-145.18;100.00;46842.06;5026436;28;20396;-71
2022/01/13 07:15:28;;;;;;;161.00;26.43;;;;;;;-145.18;100.00;46851.81;5023382;28;20281;-71
2022/01/13 07:17:55;;;;;;;181.70;29.47;;;;;;;-145.18;100.00;46867.44;5024399;28;20279;-71
2022/01/13 07:20:20;;;;;;;141.23;28.50;;;;;;;-145.18;100.00;46842.06;5026976;28;20286;-71
2022/01/13 07:22:46;;;;;;;200.57;31.20;;;;;;;-145.18;100.00;46855.72;5027153;28;20275;-71
2022/01/13 07:25:11;;;;;;;202.87;31.30;;;;;;;-145.18;100.00;46824.47;5024044;28;20053;-71
2022/01/13 07:27:37;;;;;;;167.63;26.93;;;;;;;-145.18;100.00;46826.44;5013111;28;20046;-71
2022/01/13 07:30:03;;;;;;;176.43;29.53;;;;;;;-145.18;100.00;46840.09;5026121;28;20049;-70
2022/01/13 07:32:28;;;;;;;182.33;28.23;;;;;;;-145.18;100.00;46845.97;5027202;28;20046;-71
2022/01/13 07:34:54;;;;;;;165.23;27.47;;;;;;;-145.18;100.00;46824.47;5019393;28;20052;-70
2022/01/13 07:37:24;;;;;;;149.10;27.73;;;;;;;-145.18;100.00;46857.69;5025573;28;20124;-70
2022/01/13 07:39:49;;;;;;;152.87;29.37;;;;;;;-145.18;100.00;46847.91;5025662;28;20049;-70
2022/01/13 07:42:16;;;;;;;162.03;29.03;;;;;;;-145.18;100.00;46838.16;5025929;28;20275;-71
2022/01/13 07:44:41;;;;;;;182.83;28.13;;;;;;;-145.18;100.00;46828.38;5025390;28;20041;-71
2022/01/13 07:47:07;;;;;;;148.13;27.97;;;;;;;-145.18;100.00;46834.25;5019362;28;20805;-71
2022/01/13 07:49:34;;;;;;;132.80;29.03;;;;;;;-145.18;100.00;46832.28;5026617;28;20095;-71
2022/01/13 07:52:00;;;;;;;177.07;29.30;;;;;;;-145.18;100.00;46844.00;5026257;28;20060;-71
2022/01/13 07:54:28;;;;;;;167.00;28.50;;;;;;;-145.18;100.00;46842.06;5021106;28;20763;-70
2022/01/13 07:56:54;;;;;;;154.23;26.30;;;;;;;-145.18;100.00;46857.69;5024849;28;20049;-70
2022/01/13 07:59:19;;;;;;;125.23;25.30;;;;;;;-145.18;100.00;46849.88;5024845;28;20655;-70
2022/01/13 08:01:45;;;;;;;116.40;23.43;;;;;;;-145.18;100.00;46845.97;5025160;28;20132;-70
2022/01/13 08:04:11;;;;;;;110.33;25.80;;;;;;;-145.18;100.00;46836.19;5025148;28;20053;-70
2022/01/13 08:06:36;;;;;;;153.03;26.80;;;;;;;-145.18;100.00;46844.00;5024545;28;20124;-70
2022/01/13 08:09:02;;;;;;;159.70;26.37;;;;;;;-145.18;100.00;46844.00;5026297;28;20053;-70
2022/01/13 08:11:28;;;;;;;129.80;24.43;;;;;;;-145.18;100.00;46849.88;5025506;28;20041;-70
2022/01/13 08:13:53;;;;;;;141.47;25.47;;;;;;;-145.18;100.00;46861.59;5026109;28;20499;-70
2022/01/13 08:16:19;;;;;;;149.10;24.37;;;;;;;-145.18;100.00;46844.00;5023525;28;20263;-70
2022/01/13 08:21:30;;;;;;;115.70;25.63;;;;;;;-145.18;100.00;46840.09;5025725;28;20418;-70
2022/01/13 08:23:55;;;;;;;171.57;26.80;;;;;;;-145.18;100.00;46847.91;5025353;28;20282;-70
2022/01/13 08:26:21;;;;;;;134.90;24.47;;;;;;;-145.18;100.00;46855.72;5023579;28;20274;-70
2022/01/13 08:28:47;;;;;;;114.77;24.60;;;;;;;-145.18;100.00;46849.88;5025364;28;20068;-70
2022/01/13 08:31:13;;;;;;;111.23;19.97;;;;;;;-145.18;100.00;46844.00;5024246;28;20720;-70
2022/01/13 08:33:39;;;;;;;120.33;23.27;;;;;;;-145.18;100.00;46845.97;5025705;28;20678;-71
2022/01/13 08:36:05;;;;;;;158.50;24.43;;;;;;;-145.18;100.00;46840.09;5023614;28;20183;-70
2022/01/13 08:38:31;;;;;;;136.37;22.43;;;;;;;-145.18;100.00;46840.09;5018131;28;20136;-70
2022/01/13 08:40:59;;;;;;;130.27;24.77;;;;;;;-145.18;100.00;46822.53;5020021;28;20378;-70
2022/01/13 08:43:27;;;;;;;134.73;24.87;;;;;;;-145.18;100.00;46869.41;5021289;28;20497;-70
2022/01/13 08:45:52;;;;;;;121.80;24.70;;;;;;;-145.18;100.00;46861.59;5025343;28;20915;-70
2022/01/13 08:48:18;;;;;;;145.00;26.77;;;;;;;-145.18;100.00;46853.78;5022918;28;20286;-70
2022/01/13 08:50:44;;;;;;;158.43;26.30;;;;;;;-145.18;100.00;46844.00;5025223;28;20061;-71
2022/01/13 08:53:09;;;;;;;104.90;22.20;;;;;;;-145.18;100.00;46867.44;5025556;28;20037;-70
2022/01/13 08:55:35;;;;;;;112.93;22.93;;;;;;;-145.18;100.00;46847.91;5024103;28;20051;-70
2022/01/13 08:58:00;;;;;;;184.97;25.60;;;;;;;-145.18;100.00;46855.72;5024885;28;20128;-70
2022/01/13 09:00:26;;;;;;;134.47;24.73;;;;;;;-145.18;100.00;46865.50;5025667;28;20052;-70
2022/01/13 09:02:51;;;;;;;121.97;24.00;;;;;;;-145.18;100.00;46863.53;5023894;28;20040;-70
2022/01/13 09:05:18;;;;;;;122.20;23.57;;;;;;;-145.18;100.00;46853.78;5024723;28;20046;-71
2022/01/13 09:07:44;;;;;;;111.40;21.20;;;;;;;-145.18;100.00;46859.63;5025590;28;20068;-70
2022/01/13 09:10:11;;;;;;;111.07;24.93;;;;;;;-145.18;100.00;46861.59;5020015;28;20283;-70
2022/01/13 09:12:37;;;;;;;111.63;21.40;;;;;;;-145.18;100.00;46853.78;5024738;28;20270;-70
2022/01/13 09:15:15;;;;;;;110.00;23.47;;;;;;;-145.18;100.00;46861.59;5024031;28;20340;-70
2022/01/13 09:17:43;;;;;;;150.57;27.00;;;;;;;-145.18;100.00;46857.69;5025410;28;20095;-70
2022/01/13 09:20:10;;;;;;;145.67;35.30;;;;;;;-145.18;100.00;46875.28;5024785;28;20340;-70
2022/01/13 09:22:36;;;;;;;165.17;29.13;;;;;;;-145.18;100.00;46883.09;5025216;28;20332;-70
2022/01/13 09:25:01;;;;;;;115.53;28.13;;;;;;;-145.18;100.00;46859.63;5020343;28;20294;-70
2022/01/13 09:27:27;;;;;;;125.23;27.80;;;;;;;-145.18;100.00;46844.00;5024782;28;20482;-70
2022/01/13 09:29:52;;;;;;;144.40;25.90;;;;;;;-145.18;100.00;46855.72;5021067;28;20050;-71
2022/01/13 09:32:17;;;;;;;139.30;32.30;;;;;;;-145.18;100.00;46871.38;5022843;28;20586;-70
2022/01/13 09:34:43;;;;;;;138.63;26.60;;;;;;;-145.18;100.00;46855.72;5024025;28;20045;-70
2022/01/13 09:37:09;;;;;;;152.60;25.40;;;;;;;-145.18;100.00;46845.97;5019502;28;20546;-70
2022/01/13 09:39:34;;;;;;;140.03;26.93;;;;;;;-145.18;100.00;46871.38;5021409;28;20415;-71
2022/01/13 09:42:01;;;;;;;145.13;27.50;;;;;;;-145.18;100.00;46867.44;5020973;28;20100;-71
2022/01/13 09:44:28;;;;;;;156.63;26.97;;;;;;;-145.18;100.00;46863.53;5024237;28;20513;-71
2022/01/13 09:46:54;;;;;;;129.23;25.90;;;;;;;-145.18;100.00;46871.38;5022969;28;20861;-70
2022/01/13 09:49:19;;;;;;;127.00;22.73;;;;;;;-145.18;100.00;46877.22;5024512;28;20271;-71
2022/01/13 09:51:45;;;;;;;137.97;25.77;;;;;;;-145.18;100.00;46865.50;5023746;28;20470;-70
2022/01/13 09:54:11;;;;;;;89.27;21.63;;;;;;;-145.18;100.00;46871.38;5020056;28;20217;-70
2022/01/13 09:56:37;;;;;;;103.23;19.07;;;;;;;-145.18;100.00;46892.84;5023475;28;20060;-71
2022/01/13 09:59:04;;;;;;;92.77;20.80;;;;;;;-145.18;100.00;46859.63;5024485;28;20266;-70
2022/01/13 10:01:30;;;;;;;91.10;19.03;;;;;;;-145.18;100.00;46875.28;5018660;28;20037;-71
2022/01/13 10:03:56;;;;;;;97.53;18.47;;;;;;;-145.18;100.00;46881.13;5022856;28;20730;-70
2022/01/13 10:06:21;;;;;;;93.47;19.60;;;;;;;-145.18;100.00;46879.19;5024100;28;20494;-70
2022/01/13 10:08:56;;;;;;;97.57;16.57;;;;;;;-145.18;100.00;46867.44;5022090;28;20271;-71
2022/01/13 10:11:38;;;;;;;100.13;19.80;;;;;;;-145.18;100.00;46842.06;5021435;28;20424;-71
2022/01/13 10:14:15;;;;;;;101.83;21.17;;;;;;;-145.18;100.00;46861.59;5024080;28;20335;-71
2022/01/13 10:16:45;;;;;;;90.27;19.20;;;;;;;-145.18;100.00;46859.63;5021296;28;20649;-71
2022/01/13 10:19:31;;;;;;;110.27;20.40;;;;;;;-145.18;100.00;46888.94;5015636;28;20274;-70
2022/01/13 10:22:05;;;;;;;133.68;21.65;;;;;;;-145.18;100.00;46873.31;5019261;28;20340;-70
2022/01/13 10:24:33;;;;;;;91.50;20.87;;;;;;;-145.18;100.00;46873.31;5021662;28;20048;-70
2022/01/13 10:27:09;;;;;;;109.67;21.57;;;;;;;-145.18;100.00;46885.03;5024054;28;20802;-70
2022/01/13 10:29:52;;;;;;;103.53;21.50;;;;;;;-145.18;100.00;46894.81;5025803;28;20364;-70
2022/01/13 10:32:19;;;;;;;96.83;20.77;;;;;;;-145.18;100.00;46892.84;5026879;28;20152;-70
2022/01/13 10:34:47;;;;;;;95.60;22.20;;;;;;;-145.18;100.00;46885.03;5024632;28;20324;-70
2022/01/13 10:37:13;;;;;;;84.30;19.70;;;;;;;-145.18;100.00;46885.03;5022558;28;20349;-70
2022/01/13 10:39:48;;;;;;;91.67;20.17;;;;;;;-145.18;100.00;46887.00;5026510;28;20797;-71
2022/01/13 10:42:43;;;;;;;83.13;21.40;;;;;;;-145.18;100.00;46898.72;5026181;28;20809;-71
2022/01/13 10:45:00;;;;;;;92.82;15.40;;;;;;;-145.18;100.00;46877.22;5025949;28;20068;-72
2022/01/13 10:47:31;;;;;;;83.50;19.13;;;;;;;-145.18;100.00;46881.13;5026384;28;20132;-71
2022/01/13 10:50:06;;;;;;;108.57;20.60;;;;;;;-145.18;100.00;46902.63;5026713;28;20267;-72
2022/01/13 10:52:32;;;;;;;106.33;20.87;;;;;;;-145.18;100.00;46865.50;5026981;28;20286;-71
2022/01/13 10:55:09;;;;;;;91.77;18.63;;;;;;;-145.18;100.00;46888.94;5026893;28;20271;-71
2022/01/13 10:57:35;;;;;;;99.73;20.40;;;;;;;-145.18;100.00;46881.13;5023498;28;20102;-71
2022/01/13 11:00:18;;;;;;;96.43;19.37;;;;;;;-145.18;100.00;46881.13;5023930;28;20271;-72
2022/01/13 11:02:45;;;;;;;93.60;18.37;;;;;;;-145.18;100.00;46885.03;5023277;28;20270;-71
2022/01/13 11:05:11;;;;;;;84.00;19.47;;;;;;;-145.18;100.00;46883.09;5021390;28;20259;-71
2022/01/13 11:07:37;;;;;;;106.57;20.63;;;;;;;-145.18;100.00;46900.66;5026075;28;20281;-72
2022/01/13 11:10:06;;;;;;;94.43;20.30;;;;;;;-145.18;100.00;46906.53;5026749;28;20555;-70
2022/01/13 11:12:36;;;;;;;90.67;22.60;;;;;;;-145.18;100.00;46887.00;5024979;28;21006;-72
2022/01/13 11:15:11;;;;;;;83.00;19.03;;;;;;;-145.18;100.00;46871.38;5023145;28;20282;-70